createdAt,value
2023-03-08T00:00:16.242Z,6.50
2023-03-08T00:02:44.539Z,4.53
2023-03-08T00:05:12.764Z,5.32
2023-03-08T00:07:40.852Z,7.85
2023-03-08T00:10:10.234Z,8.00
2023-03-08T00:12:38.779Z,4.65
2023-03-08T00:15:09.302Z,6.85
2023-03-08T00:17:37.763Z,6.88
2023-03-08T00:20:07.138Z,3.75
2023-03-08T00:22:36.952Z,10.50
2023-03-08T00:25:05.621Z,3.83
2023-03-08T00:27:34.024Z,4.57
2023-03-08T00:30:02.159Z,5.00
2023-03-08T00:32:31.491Z,7.68
2023-03-08T00:34:59.480Z,6.35
2023-03-08T00:37:27.855Z,3.92
2023-03-08T00:39:56.070Z,6.82
2023-03-08T00:42:24.429Z,7.53
2023-03-08T00:44:52.610Z,9.15
2023-03-08T00:47:20.531Z,7.40
2023-03-08T00:49:49.940Z,6.00
2023-03-08T00:52:18.221Z,7.90
2023-03-08T00:54:46.191Z,9.82
2023-03-08T00:57:14.474Z,8.48
2023-03-08T00:59:42.759Z,6.95
2023-03-08T01:02:12.339Z,8.73
2023-03-08T01:04:41.195Z,9.38
2023-03-08T01:07:10.431Z,9.07
2023-03-08T01:09:39.510Z,10.88
2023-03-08T01:12:07.546Z,8.40
2023-03-08T01:14:37.188Z,10.35
2023-03-08T01:17:05.137Z,9.23
2023-03-08T01:19:33.283Z,10.93
2023-03-08T01:22:01.089Z,8.40
2023-03-08T01:24:30.468Z,10.23
2023-03-08T01:27:01.008Z,7.65
2023-03-08T01:29:29.281Z,11.90
2023-03-08T01:31:59.514Z,11.50
2023-03-08T01:34:29.216Z,14.98
2023-03-08T01:36:57.408Z,9.65
2023-03-08T01:39:25.480Z,12.20
2023-03-08T01:41:54.972Z,11.93
2023-03-08T01:44:23.353Z,12.15
2023-03-08T01:46:55.420Z,12.30
2023-03-08T01:49:28.849Z,12.32
2023-03-08T01:52:01.920Z,12.27
2023-03-08T01:54:33.626Z,11.07
2023-03-08T01:57:05.465Z,12.35
2023-03-08T01:59:34.283Z,14.32
2023-03-08T02:02:03.794Z,14.63
2023-03-08T02:04:33.883Z,16.80
2023-03-08T02:07:01.843Z,19.77
2023-03-08T02:09:30.441Z,17.58
2023-03-08T02:12:04.304Z,15.90
2023-03-08T02:14:32.918Z,18.50
2023-03-08T02:17:00.847Z,16.55
2023-03-08T02:19:33.373Z,19.88
2023-03-08T02:22:09.125Z,22.05
2023-03-08T02:24:38.637Z,21.20
2023-03-08T02:27:09.106Z,22.58
2023-03-08T02:29:37.350Z,17.08
2023-03-08T02:32:06.172Z,21.77
2023-03-08T02:34:34.135Z,20.35
2023-03-08T02:37:02.036Z,21.15
2023-03-08T02:39:30.290Z,22.88
2023-03-08T02:41:59.650Z,27.05
2023-03-08T02:44:27.967Z,25.83
2023-03-08T02:46:56.268Z,26.45
2023-03-08T02:49:24.324Z,24.95
2023-03-08T02:51:53.208Z,27.88
2023-03-08T02:54:22.221Z,29.70
2023-03-08T02:56:50.182Z,31.90
2023-03-08T02:59:19.913Z,26.63
2023-03-08T03:01:49.019Z,29.58
2023-03-08T03:04:16.795Z,38.83
2023-03-08T03:06:45.011Z,28.10
2023-03-08T03:09:14.222Z,28.55
2023-03-08T03:11:42.841Z,24.13
2023-03-08T03:14:10.918Z,30.35
2023-03-08T03:16:43.941Z,29.90
2023-03-08T03:19:13.025Z,29.40
2023-03-08T03:21:41.499Z,30.90
2023-03-08T03:24:09.619Z,33.67
2023-03-08T03:26:52.184Z,30.92
2023-03-08T03:29:21.855Z,31.42
2023-03-08T03:31:56.280Z,34.60
2023-03-08T03:34:24.745Z,34.85
2023-03-08T03:36:53.328Z,41.20
2023-03-08T03:39:22.685Z,39.63
2023-03-08T03:41:50.915Z,40.83
2023-03-08T03:44:19.012Z,41.80
2023-03-08T03:46:49.973Z,48.45
2023-03-08T03:49:24.653Z,43.25
2023-03-08T03:51:53.322Z,45.95
2023-03-08T03:54:34.865Z,54.33
2023-03-08T03:57:03.553Z,47.60
2023-03-08T03:59:36.421Z,53.63
2023-03-08T04:02:05.266Z,50.47
2023-03-08T04:04:39.942Z,51.78
2023-03-08T04:07:09.006Z,56.60
2023-03-08T04:09:41.504Z,50.35
2023-03-08T04:12:16.753Z,51.55
2023-03-08T04:14:45.520Z,58.20
2023-03-08T04:17:15.028Z,67.03
2023-03-08T04:19:50.886Z,58.58
2023-03-08T04:22:20.397Z,66.45
2023-03-08T04:24:53.147Z,56.10
2023-03-08T04:27:27.401Z,56.97
2023-03-08T04:29:55.949Z,58.40
2023-03-08T04:32:24.713Z,67.72
2023-03-08T04:34:58.899Z,62.38
2023-03-08T04:37:30.675Z,70.90
2023-03-08T04:40:09.472Z,64.47
2023-03-08T04:42:44.319Z,81.38
2023-03-08T04:45:15.156Z,61.40
2023-03-08T04:47:43.227Z,66.25
2023-03-08T04:50:13.935Z,61.33
2023-03-08T04:52:42.750Z,64.35
2023-03-08T04:55:12.188Z,65.85
2023-03-08T04:57:40.342Z,54.85
2023-03-08T05:00:11.317Z,65.53
2023-03-08T05:02:41.423Z,56.33
2023-03-08T05:05:16.049Z,58.88
2023-03-08T05:07:45.235Z,60.17
2023-03-08T05:10:13.821Z,59.88
2023-03-08T05:12:42.713Z,56.88
2023-03-08T05:15:11.935Z,57.60
2023-03-08T05:17:39.769Z,54.55
2023-03-08T05:20:09.508Z,60.22
2023-03-08T05:22:57.246Z,62.05
2023-03-08T05:25:30.940Z,60.13
2023-03-08T05:27:59.963Z,65.18
2023-03-08T05:30:28.241Z,60.47
2023-03-08T05:32:57.248Z,61.20
2023-03-08T05:35:25.911Z,62.58
2023-03-08T05:37:55.180Z,67.03
2023-03-08T05:40:23.278Z,64.65
2023-03-08T05:42:52.071Z,60.15
2023-03-08T05:45:19.929Z,61.28
2023-03-08T05:47:47.923Z,60.90
2023-03-08T05:50:15.772Z,56.50
2023-03-08T05:52:45.357Z,56.10
2023-03-08T05:55:19.255Z,61.40
2023-03-08T05:57:48.333Z,54.38
2023-03-08T06:00:17.742Z,57.28
2023-03-08T06:02:50.038Z,58.20
2023-03-08T06:05:18.042Z,60.20
2023-03-08T06:07:47.531Z,57.28
2023-03-08T06:10:16.169Z,54.22
2023-03-08T06:12:45.689Z,54.90
2023-03-08T06:15:16.749Z,52.60
2023-03-08T06:17:46.261Z,53.42
2023-03-08T06:20:18.268Z,54.45
2023-03-08T06:22:49.337Z,57.28
2023-03-08T06:25:19.311Z,61.92
2023-03-08T06:27:50.153Z,58.55
2023-03-08T06:30:27.245Z,62.10
2023-03-08T06:32:55.944Z,56.47
2023-03-08T06:35:24.014Z,69.47
2023-03-08T06:37:57.710Z,64.97
2023-03-08T06:40:26.108Z,64.20
2023-03-08T06:42:55.462Z,66.60
2023-03-08T06:45:24.008Z,69.75
2023-03-08T06:47:52.024Z,69.57
2023-03-08T06:50:20.421Z,68.55
2023-03-08T06:52:50.337Z,67.25
2023-03-08T06:55:24.185Z,75.40
2023-03-08T06:57:52.420Z,72.35
2023-03-08T07:00:23.382Z,68.57
2023-03-08T07:02:51.355Z,69.60
2023-03-08T07:05:19.415Z,73.57
2023-03-08T07:07:47.328Z,74.93
2023-03-08T07:10:19.657Z,72.50
2023-03-08T07:12:51.211Z,77.43
2023-03-08T07:15:22.948Z,75.72
2023-03-08T07:17:52.311Z,80.28
2023-03-08T07:20:21.526Z,79.20
2023-03-08T07:22:49.992Z,88.75
2023-03-08T07:25:19.642Z,82.35
2023-03-08T07:27:47.930Z,86.28
2023-03-08T07:30:17.034Z,79.22
2023-03-08T07:32:46.617Z,82.43
2023-03-08T07:35:16.253Z,75.97
2023-03-08T07:37:45.604Z,79.85
2023-03-08T07:40:14.626Z,77.68
2023-03-08T07:42:42.995Z,77.70
2023-03-08T07:45:27.324Z,80.05
2023-03-08T07:47:56.636Z,95.53
2023-03-08T07:50:24.850Z,79.57
2023-03-08T07:52:52.935Z,80.00
2023-03-08T07:55:21.583Z,80.72
2023-03-08T07:57:49.572Z,79.43
2023-03-08T08:00:18.831Z,80.15
2023-03-08T08:02:47.058Z,82.25
2023-03-08T08:05:16.682Z,77.43
2023-03-08T08:07:47.693Z,72.65
2023-03-08T08:10:16.022Z,75.28
2023-03-08T08:12:44.049Z,84.00
2023-03-08T08:15:12.888Z,80.80
2023-03-08T08:17:41.338Z,84.88
2023-03-08T08:20:10.391Z,76.70
2023-03-08T08:22:40.276Z,77.00
2023-03-08T08:25:09.551Z,70.03
2023-03-08T08:27:37.740Z,73.30
2023-03-08T08:30:07.548Z,72.18
2023-03-08T08:32:38.039Z,82.45
2023-03-08T08:35:06.813Z,81.53
2023-03-08T08:37:34.905Z,70.65
2023-03-08T08:40:08.030Z,83.00
2023-03-08T08:42:36.357Z,72.53
2023-03-08T08:45:04.491Z,75.35
2023-03-08T08:47:32.438Z,96.72
2023-03-08T08:50:00.318Z,78.25
2023-03-08T08:52:28.347Z,71.50
2023-03-08T08:54:56.859Z,68.65
2023-03-08T08:57:28.921Z,65.20
2023-03-08T08:59:56.809Z,61.08
2023-03-08T09:02:24.806Z,59.72
2023-03-08T09:04:53.029Z,65.60
2023-03-08T09:07:21.100Z,56.47
2023-03-08T09:09:49.106Z,55.28
2023-03-08T09:12:16.979Z,54.28
2023-03-08T09:14:46.754Z,55.45
2023-03-08T09:17:14.928Z,55.15
2023-03-08T09:19:43.081Z,52.22
2023-03-08T09:22:11.553Z,53.95
2023-03-08T09:24:39.845Z,54.35
2023-03-08T09:27:07.825Z,56.47
2023-03-08T09:29:37.996Z,57.65
2023-03-08T09:32:08.127Z,59.65
2023-03-08T09:34:36.343Z,56.83
2023-03-08T09:37:05.937Z,52.08
2023-03-08T09:39:34.013Z,52.10
2023-03-08T09:42:03.322Z,57.40
2023-03-08T09:45:07.935Z,55.03
2023-03-08T09:47:47.935Z,51.60
2023-03-08T09:50:22.841Z,53.03
2023-03-08T09:52:57.035Z,59.05
2023-03-08T09:55:30.445Z,51.95
2023-03-08T09:58:01.671Z,55.15
2023-03-08T10:00:32.279Z,55.58
2023-03-08T10:03:39.777Z,65.20
2023-03-08T10:06:14.758Z,57.58
2023-03-08T10:08:49.974Z,55.63
2023-03-08T10:11:22.009Z,58.70
2023-03-08T10:13:51.604Z,51.83
2023-03-08T10:16:25.936Z,64.32
2023-03-08T10:18:57.721Z,58.67
2023-03-08T10:21:27.461Z,60.90
2023-03-08T10:24:00.603Z,56.85
2023-03-08T10:26:29.622Z,71.90
2023-03-08T10:28:59.255Z,55.78
2023-03-08T10:31:29.245Z,49.58
2023-03-08T10:34:07.790Z,53.33
2023-03-08T10:36:36.022Z,54.17
2023-03-08T10:39:08.117Z,58.80
2023-03-08T10:41:42.904Z,54.22
2023-03-08T10:44:28.727Z,55.50
2023-03-08T10:46:56.982Z,57.20
2023-03-08T10:49:29.584Z,52.97
2023-03-08T10:51:59.498Z,47.22
2023-03-08T10:54:28.200Z,49.83
2023-03-08T10:56:59.663Z,52.90
2023-03-08T10:59:32.580Z,49.45
2023-03-08T11:02:03.503Z,43.17
2023-03-08T11:04:34.122Z,44.92
2023-03-08T11:07:11.750Z,45.85
2023-03-08T11:09:39.834Z,45.83
2023-03-08T11:12:11.752Z,40.05
2023-03-08T11:14:41.791Z,40.75
2023-03-08T11:17:17.315Z,43.35
2023-03-08T11:20:11.309Z,41.95
2023-03-08T11:22:53.949Z,42.75
2023-03-08T11:25:36.708Z,41.55
2023-03-08T11:28:18.407Z,39.25
2023-03-08T11:30:57.283Z,41.28
2023-03-08T11:33:42.148Z,33.80
2023-03-08T11:36:14.266Z,35.65
2023-03-08T11:38:42.363Z,35.08
2023-03-08T11:41:17.507Z,34.67
2023-03-08T11:43:58.668Z,28.92
2023-03-08T11:46:31.250Z,30.20
2023-03-08T11:49:16.542Z,32.67
2023-03-08T11:51:56.526Z,29.45
2023-03-08T11:54:37.856Z,33.08
2023-03-08T11:57:08.785Z,28.77
2023-03-08T11:59:38.869Z,35.38
2023-03-08T12:02:15.068Z,30.58
2023-03-08T12:04:45.524Z,31.60
2023-03-08T12:07:21.469Z,27.92
2023-03-08T12:09:55.411Z,27.83
2023-03-08T12:12:27.627Z,26.17
2023-03-08T12:14:58.441Z,30.85
2023-03-08T12:17:28.851Z,30.88
2023-03-08T12:19:57.289Z,24.38
2023-03-08T12:22:34.249Z,30.85
2023-03-08T12:25:09.003Z,25.55
2023-03-08T12:27:41.572Z,25.08
2023-03-08T12:30:19.460Z,28.52
2023-03-08T12:32:48.493Z,23.25
2023-03-08T12:35:28.744Z,28.55
2023-03-08T12:38:00.142Z,31.25
2023-03-08T12:40:32.421Z,27.35
2023-03-08T12:43:29.375Z,26.25
2023-03-08T12:46:03.796Z,30.17
2023-03-08T12:48:34.679Z,31.38
2023-03-08T12:51:05.859Z,29.58
2023-03-08T12:53:40.863Z,29.90
2023-03-08T12:56:24.210Z,29.27
2023-03-08T12:58:54.713Z,29.30
2023-03-08T13:01:34.175Z,28.00
2023-03-08T13:04:04.164Z,28.80
2023-03-08T13:06:51.237Z,31.15
2023-03-08T13:09:23.923Z,26.63
2023-03-08T13:11:59.788Z,30.15
2023-03-08T13:14:29.489Z,27.30
2023-03-08T13:16:57.550Z,22.67
2023-03-08T13:19:27.893Z,25.92
2023-03-08T13:22:02.161Z,25.00
2023-03-08T13:24:44.678Z,23.52
2023-03-08T13:27:23.204Z,22.63
2023-03-08T13:29:51.873Z,22.80
2023-03-08T13:32:21.396Z,24.42
2023-03-08T13:35:00.136Z,22.67
2023-03-08T13:37:29.552Z,20.75
2023-03-08T13:40:00.394Z,23.40
2023-03-08T13:42:30.141Z,19.80
2023-03-08T13:45:09.055Z,22.00
2023-03-08T13:47:39.291Z,22.58
2023-03-08T13:50:08.061Z,19.30
2023-03-08T13:52:39.590Z,16.50
2023-03-08T13:55:14.413Z,21.60
2023-03-08T13:57:42.811Z,22.42
2023-03-08T14:00:31.548Z,18.77
2023-03-08T14:03:00.261Z,19.85
2023-03-08T14:05:29.813Z,18.30
2023-03-08T14:07:59.820Z,20.80
2023-03-08T14:10:33.104Z,18.35
2023-03-08T14:13:01.375Z,16.77
2023-03-08T14:15:36.526Z,20.90
2023-03-08T14:18:05.132Z,19.80
2023-03-08T14:20:33.441Z,20.85
2023-03-08T14:23:01.814Z,23.90
2023-03-08T14:25:32.720Z,21.63
2023-03-08T14:28:00.897Z,21.58
2023-03-08T14:30:30.191Z,18.77
2023-03-08T14:33:06.227Z,19.90
2023-03-08T14:35:36.993Z,16.25
2023-03-08T14:38:05.197Z,19.33
2023-03-08T14:40:36.460Z,19.23
2023-03-08T14:43:05.782Z,16.50
2023-03-08T14:45:36.637Z,16.95
2023-03-08T14:48:22.966Z,21.70
2023-03-08T14:50:54.696Z,63.00
2023-03-08T14:53:34.613Z,38.17
2023-03-08T14:56:07.738Z,20.73
2023-03-08T14:58:38.746Z,33.27
2023-03-08T15:01:07.161Z,41.83
2023-03-08T15:03:35.308Z,24.08
2023-03-08T15:06:10.097Z,20.73
2023-03-08T15:08:38.272Z,18.55
2023-03-08T15:11:08.086Z,28.60
2023-03-08T15:13:36.052Z,18.92
2023-03-08T15:16:03.996Z,19.13
2023-03-08T15:18:32.038Z,18.02
2023-03-08T15:21:00.192Z,45.10
2023-03-08T15:23:31.199Z,17.10
2023-03-08T15:26:00.128Z,17.35
2023-03-08T15:28:29.593Z,17.95
2023-03-08T15:30:57.698Z,21.83
2023-03-08T15:33:25.813Z,21.88
2023-03-08T15:35:53.933Z,23.85
2023-03-08T15:38:24.124Z,114.57
2023-03-08T15:40:52.211Z,53.88
2023-03-08T15:43:20.068Z,55.38
2023-03-08T15:45:49.491Z,35.58
2023-03-08T15:48:19.398Z,23.10
2023-03-08T15:50:49.710Z,20.27
2023-03-08T15:53:29.641Z,26.58
2023-03-08T15:56:02.739Z,28.38
2023-03-08T15:58:30.742Z,21.92
2023-03-08T16:01:00.376Z,19.83
2023-03-08T16:03:30.987Z,27.77
2023-03-08T16:05:59.716Z,24.40
2023-03-08T16:08:28.611Z,26.52
2023-03-08T16:11:00.365Z,33.85
2023-03-08T16:13:28.483Z,28.15
2023-03-08T16:16:00.517Z,24.65
2023-03-08T16:18:29.737Z,26.65
2023-03-08T16:20:59.246Z,24.05
2023-03-08T16:23:27.652Z,29.25
2023-03-08T16:26:13.626Z,29.70
2023-03-08T16:28:43.771Z,21.27
2023-03-08T16:31:13.764Z,24.98
2023-03-08T16:33:41.990Z,29.33
2023-03-08T16:36:10.183Z,30.88
2023-03-08T16:38:38.240Z,24.75
2023-03-08T16:41:12.633Z,29.85
2023-03-08T16:43:47.221Z,23.08
2023-03-08T16:46:18.411Z,20.42
2023-03-08T16:48:49.530Z,25.63
2023-03-08T16:51:18.604Z,23.90
2023-03-08T16:53:46.547Z,25.40
2023-03-08T16:56:18.933Z,24.90
2023-03-08T16:58:47.175Z,31.67
2023-03-08T17:01:17.916Z,36.25
2023-03-08T17:03:45.929Z,31.92
2023-03-08T17:06:16.104Z,28.00
2023-03-08T17:08:44.159Z,30.83
2023-03-08T17:11:15.862Z,28.35
2023-03-08T17:13:44.559Z,26.13
2023-03-08T17:16:13.580Z,26.25
2023-03-08T17:18:43.210Z,24.27
2023-03-08T17:21:11.187Z,25.05
2023-03-08T17:23:39.392Z,27.83
2023-03-08T17:26:08.938Z,24.42
2023-03-08T17:28:37.117Z,25.70
2023-03-08T17:31:08.868Z,27.92
2023-03-08T17:33:37.066Z,28.30
2023-03-08T17:36:07.543Z,26.00
2023-03-08T17:38:35.515Z,26.63
2023-03-08T17:41:05.395Z,24.70
2023-03-08T17:43:33.447Z,32.72
2023-03-08T17:46:03.521Z,25.60
2023-03-08T17:48:31.785Z,31.15
2023-03-08T17:51:03.312Z,34.78
2023-03-08T17:53:34.001Z,33.75
2023-03-08T17:56:02.290Z,31.15
2023-03-08T17:58:30.514Z,29.17
2023-03-08T18:00:58.532Z,34.80
2023-03-08T18:03:26.480Z,32.70
2023-03-08T18:05:54.941Z,28.23
2023-03-08T18:08:23.066Z,26.65
2023-03-08T18:10:52.283Z,27.90
2023-03-08T18:13:20.440Z,26.60
2023-03-08T18:15:51.880Z,28.10
2023-03-08T18:18:21.304Z,27.75
2023-03-08T18:20:49.350Z,27.67
2023-03-08T18:23:17.351Z,26.75
2023-03-08T18:25:45.651Z,27.52
2023-03-08T18:28:16.602Z,28.60
2023-03-08T18:30:46.371Z,30.85
2023-03-08T18:33:14.537Z,26.67
2023-03-08T18:35:44.155Z,26.95
2023-03-08T18:38:13.738Z,34.58
2023-03-08T18:40:41.900Z,41.05
2023-03-08T18:43:10.036Z,34.65
2023-03-08T18:45:39.260Z,29.77
2023-03-08T18:48:07.383Z,28.25
2023-03-08T18:50:35.294Z,29.00
2023-03-08T18:53:03.501Z,26.77
2023-03-08T18:55:31.582Z,27.23
2023-03-08T18:57:59.777Z,27.42
2023-03-08T19:00:28.073Z,27.38
2023-03-08T19:03:00.789Z,30.67
2023-03-08T19:05:28.855Z,29.15
2023-03-08T19:07:56.935Z,35.95
2023-03-08T19:10:25.014Z,28.73
2023-03-08T19:12:54.118Z,27.13
2023-03-08T19:15:22.094Z,32.28
2023-03-08T19:17:50.104Z,31.38
2023-03-08T19:20:19.569Z,31.02
2023-03-08T19:22:47.544Z,32.83
2023-03-08T19:25:16.228Z,33.83
2023-03-08T19:27:44.045Z,33.92
2023-03-08T19:30:15.779Z,31.10
2023-03-08T19:32:44.339Z,34.55
2023-03-08T19:35:12.243Z,35.80
2023-03-08T19:38:01.804Z,34.00
2023-03-08T19:40:39.218Z,38.08
2023-03-08T19:43:13.205Z,29.73
2023-03-08T19:45:49.668Z,28.27
2023-03-08T19:48:23.603Z,24.10
2023-03-08T19:51:05.825Z,24.35
2023-03-08T19:53:58.101Z,22.55
2023-03-08T19:56:33.160Z,27.98
2023-03-08T19:59:05.239Z,24.30
2023-03-08T20:01:38.921Z,22.65
2023-03-08T20:04:11.132Z,20.38
2023-03-08T20:06:47.126Z,21.52
2023-03-08T20:09:21.520Z,22.58
2023-03-08T20:11:53.045Z,20.77
2023-03-08T20:14:21.214Z,19.30
2023-03-08T20:16:49.208Z,19.70
2023-03-08T20:19:17.763Z,18.98
2023-03-08T20:21:48.594Z,18.85
2023-03-08T20:24:20.464Z,34.63
2023-03-08T20:26:49.388Z,29.08
2023-03-08T20:29:17.968Z,21.00
2023-03-08T20:31:48.379Z,20.33
2023-03-08T20:34:16.774Z,32.28
2023-03-08T20:36:44.961Z,30.73
2023-03-08T20:39:13.546Z,48.97
2023-03-08T20:41:43.107Z,45.38
2023-03-08T20:44:12.114Z,26.17
2023-03-08T20:46:40.288Z,21.98
2023-03-08T20:49:08.362Z,20.67
2023-03-08T20:51:36.407Z,50.53
2023-03-08T20:54:06.315Z,149.55
2023-03-08T20:56:34.286Z,38.13
2023-03-08T20:59:03.889Z,30.13
2023-03-08T21:01:33.323Z,43.08
2023-03-08T21:04:01.596Z,20.90
2023-03-08T21:06:31.694Z,21.70
2023-03-08T21:09:00.428Z,28.23
2023-03-08T21:11:29.074Z,18.38
2023-03-08T21:13:57.071Z,19.88
2023-03-08T21:16:27.635Z,20.02
2023-03-08T21:18:57.089Z,24.95
2023-03-08T21:21:28.121Z,30.95
2023-03-08T21:23:57.185Z,23.20
2023-03-08T21:26:26.374Z,22.38
2023-03-08T21:28:56.505Z,19.40
2023-03-08T21:31:26.585Z,17.92
2023-03-08T21:33:54.890Z,17.80
2023-03-08T21:36:24.214Z,19.67
2023-03-08T21:38:53.289Z,18.33
2023-03-08T21:41:23.207Z,21.40
2023-03-08T21:43:51.506Z,22.95
2023-03-08T21:46:19.991Z,20.75
2023-03-08T21:48:49.359Z,18.25
2023-03-08T21:51:17.925Z,17.65
2023-03-08T21:53:46.053Z,19.50
2023-03-08T21:56:15.610Z,19.42
2023-03-08T21:58:43.725Z,21.17
2023-03-08T22:01:19.681Z,21.02
2023-03-08T22:03:49.168Z,18.85
2023-03-08T22:06:17.381Z,20.77
2023-03-08T22:08:45.543Z,20.35
2023-03-08T22:11:13.784Z,21.17
2023-03-08T22:13:41.716Z,20.67
2023-03-08T22:16:10.019Z,25.15
2023-03-08T22:18:38.029Z,20.35
2023-03-08T22:21:07.622Z,20.33
2023-03-08T22:23:35.763Z,22.95
2023-03-08T22:26:03.587Z,22.40
2023-03-08T22:28:31.641Z,22.85
2023-03-08T22:30:59.494Z,22.55
2023-03-08T22:33:27.479Z,22.08
2023-03-08T22:35:55.472Z,21.45
2023-03-08T22:38:24.821Z,20.63
2023-03-08T22:40:52.797Z,23.50
2023-03-08T22:43:20.765Z,23.42
2023-03-08T22:45:49.068Z,20.98
2023-03-08T22:48:16.979Z,24.23
2023-03-08T22:50:44.906Z,22.95
2023-03-08T22:53:12.777Z,22.88
2023-03-08T22:55:48.794Z,26.83
2023-03-08T22:58:16.832Z,25.35
2023-03-08T23:00:44.684Z,26.25
2023-03-08T23:03:12.786Z,24.40
2023-03-08T23:05:40.940Z,30.25
2023-03-08T23:08:09.219Z,26.13
2023-03-08T23:10:37.482Z,24.60
2023-03-08T23:13:06.779Z,26.55
2023-03-08T23:15:34.782Z,25.52
2023-03-08T23:18:02.643Z,27.25
2023-03-08T23:20:30.777Z,27.17
2023-03-08T23:22:58.696Z,25.02
2023-03-08T23:25:26.694Z,27.20
2023-03-08T23:27:54.940Z,27.95
2023-03-08T23:30:24.638Z,26.42
2023-03-08T23:32:52.725Z,30.25
2023-03-08T23:35:20.823Z,27.73
2023-03-08T23:37:48.857Z,27.42
2023-03-08T23:40:16.896Z,27.50
2023-03-08T23:42:44.755Z,27.50
2023-03-08T23:45:12.832Z,28.55
2023-03-08T23:47:42.058Z,28.35
2023-03-08T23:50:10.933Z,30.30
2023-03-08T23:52:38.794Z,30.70
2023-03-08T23:55:08.015Z,28.05
2023-03-08T23:57:35.771Z,28.10
